sensor_id;sensor_type;location;lat;lon;timestamp;pressure;altitude;pressure_sealevel;temperature;humidity
30110;BME280;14965;50.660;13.226;2023-02-23T00:00:25;94550.09;;;5.72;94.20
30110;BME280;14965;50.660;13.226;2023-02-23T00:02:51;94545.38;;;5.72;93.92
30110;BME280;14965;50.660;13.226;2023-02-23T00:05:17;94549.31;;;5.71;93.66
30110;BME280;14965;50.660;13.226;2023-02-23T00:07:44;94549.06;;;5.62;93.72
30110;BME280;14965;50.660;13.226;2023-02-23T00:10:12;94550.63;;;5.63;94.17
30110;BME280;14965;50.660;13.226;2023-02-23T00:12:39;94548.59;;;5.67;94.20
30110;BME280;14965;50.660;13.226;2023-02-23T00:15:06;94548.56;;;5.71;93.91
30110;BME280;14965;50.660;13.226;2023-02-23T00:17:34;94542.25;;;5.74;93.33
30110;BME280;14965;50.660;13.226;2023-02-23T00:20:00;94533.97;;;5.78;93.02
30110;BME280;14965;50.660;13.226;2023-02-23T00:22:26;94534.75;;;5.78;92.94
30110;BME280;14965;50.660;13.226;2023-02-23T00:24:51;94529.63;;;5.80;93.19
30110;BME280;14965;50.660;13.226;2023-02-23T00:27:17;94532.72;;;5.82;92.46
30110;BME280;14965;50.660;13.226;2023-02-23T00:29:43;94533.06;;;5.84;93.16
30110;BME280;14965;50.660;13.226;2023-02-23T00:32:09;94541.66;;;5.86;92.91
30110;BME280;14965;50.660;13.226;2023-02-23T00:34:36;94524.38;;;5.89;93.01
30110;BME280;14965;50.660;13.226;2023-02-23T00:37:02;94521.22;;;5.91;92.25
30110;BME280;14965;50.660;13.226;2023-02-23T00:39:28;94520.84;;;5.92;92.28
30110;BME280;14965;50.660;13.226;2023-02-23T00:41:55;94520.78;;;5.96;92.66
30110;BME280;14965;50.660;13.226;2023-02-23T00:44:22;94521.56;;;5.96;92.63
30110;BME280;14965;50.660;13.226;2023-02-23T00:46:49;94516.00;;;6.00;92.50
30110;BME280;14965;50.660;13.226;2023-02-23T00:49:16;94528.13;;;6.03;92.84
30110;BME280;14965;50.660;13.226;2023-02-23T00:51:43;94521.44;;;6.04;92.49
30110;BME280;14965;50.660;13.226;2023-02-23T00:54:11;94526.50;;;6.05;92.14
30110;BME280;14965;50.660;13.226;2023-02-23T00:56:38;94524.53;;;6.06;92.84
30110;BME280;14965;50.660;13.226;2023-02-23T00:59:05;94527.63;;;6.08;92.49
30110;BME280;14965;50.660;13.226;2023-02-23T01:01:31;94535.44;;;6.09;92.91
30110;BME280;14965;50.660;13.226;2023-02-23T01:03:56;94524.47;;;6.09;92.73
30110;BME280;14965;50.660;13.226;2023-02-23T01:06:22;94523.69;;;6.09;93.10
30110;BME280;14965;50.660;13.226;2023-02-23T01:08:51;94524.47;;;6.09;92.57
30110;BME280;14965;50.660;13.226;2023-02-23T01:11:21;94527.63;;;6.08;93.43
30110;BME280;14965;50.660;13.226;2023-02-23T01:13:50;94533.13;;;6.08;92.99
30110;BME280;14965;50.660;13.226;2023-02-23T01:16:19;94526.44;;;6.09;93.52
30110;BME280;14965;50.660;13.226;2023-02-23T01:18:46;94526.81;;;6.11;92.98
30110;BME280;14965;50.660;13.226;2023-02-23T01:21:15;94526.81;;;6.11;92.83
30110;BME280;14965;50.660;13.226;2023-02-23T01:23:41;94528.84;;;6.07;92.94
30110;BME280;14965;50.660;13.226;2023-02-23T01:26:14;94526.16;;;6.03;93.42
30110;BME280;14965;50.660;13.226;2023-02-23T01:28:40;94525.00;;;6.01;93.98
30110;BME280;14965;50.660;13.226;2023-02-23T01:31:08;94514.41;;;6.03;93.63
30110;BME280;14965;50.660;13.226;2023-02-23T01:33:34;94515.53;;;6.05;93.40
30110;BME280;14965;50.660;13.226;2023-02-23T01:36:00;94507.31;;;6.05;93.85
30110;BME280;14965;50.660;13.226;2023-02-23T01:38:26;94508.50;;;6.04;93.98
30110;BME280;14965;50.660;13.226;2023-02-23T01:40:51;94510.06;;;6.05;93.50
30110;BME280;14965;50.660;13.226;2023-02-23T01:43:21;94497.19;;;6.02;92.98
30110;BME280;14965;50.660;13.226;2023-02-23T01:45:47;94502.78;;;5.95;93.35
30110;BME280;14965;50.660;13.226;2023-02-23T01:48:16;94509.13;;;5.88;93.31
30110;BME280;14965;50.660;13.226;2023-02-23T01:50:51;94499.91;;;5.79;93.93
30110;BME280;14965;50.660;13.226;2023-02-23T01:53:20;94499.19;;;5.74;93.89
30110;BME280;14965;50.660;13.226;2023-02-23T01:55:48;94492.16;;;5.73;94.10
30110;BME280;14965;50.660;13.226;2023-02-23T01:58:20;94493.00;;;5.70;94.14
30110;BME280;14965;50.660;13.226;2023-02-23T02:00:50;94502.81;;;5.68;94.52
30110;BME280;14965;50.660;13.226;2023-02-23T02:03:25;94491.53;;;5.62;94.51
30110;BME280;14965;50.660;13.226;2023-02-23T02:05:53;94498.69;;;5.56;94.40
30110;BME280;14965;50.660;13.226;2023-02-23T02:08:21;94495.63;;;5.50;94.34
30110;BME280;14965;50.660;13.226;2023-02-23T02:10:47;94485.97;;;5.42;94.99
30110;BME280;14965;50.660;13.226;2023-02-23T02:13:20;94481.34;;;5.39;95.63
30110;BME280;14965;50.660;13.226;2023-02-23T02:16:23;94478.97;;;5.41;96.13
30110;BME280;14965;50.660;13.226;2023-02-23T02:22:45;94477.63;;;5.53;96.07
30110;BME280;14965;50.660;13.226;2023-02-23T02:25:48;94472.84;;;5.57;96.25
30110;BME280;14965;50.660;13.226;2023-02-23T02:28:39;94474.34;;;5.62;96.08
30110;BME280;14965;50.660;13.226;2023-02-23T02:31:48;94478.16;;;5.68;96.09
30110;BME280;14965;50.660;13.226;2023-02-23T02:34:56;94474.22;;;5.69;96.28
30110;BME280;14965;50.660;13.226;2023-02-23T02:37:45;94467.94;;;5.68;95.93
30110;BME280;14965;50.660;13.226;2023-02-23T02:40:26;94474.28;;;5.65;95.63
30110;BME280;14965;50.660;13.226;2023-02-23T02:43:05;94464.94;;;5.63;96.23
30110;BME280;14965;50.660;13.226;2023-02-23T02:45:43;94467.72;;;5.59;95.85
30110;BME280;14965;50.660;13.226;2023-02-23T02:48:21;94463.44;;;5.58;96.06
30110;BME280;14965;50.660;13.226;2023-02-23T02:50:54;94474.41;;;5.58;96.18
30110;BME280;14965;50.660;13.226;2023-02-23T02:53:32;94468.50;;;5.60;96.34
30110;BME280;14965;50.660;13.226;2023-02-23T02:56:06;94465.69;;;5.63;95.92
30110;BME280;14965;50.660;13.226;2023-02-23T02:58:35;94464.53;;;5.64;96.25
30110;BME280;14965;50.660;13.226;2023-02-23T03:01:07;94468.75;;;5.69;96.39
30110;BME280;14965;50.660;13.226;2023-02-23T03:03:39;94458.56;;;5.69;95.99
30110;BME280;14965;50.660;13.226;2023-02-23T03:06:05;94454.97;;;5.72;95.56
30110;BME280;14965;50.660;13.226;2023-02-23T03:08:42;94459.28;;;5.73;95.72
30110;BME280;14965;50.660;13.226;2023-02-23T03:11:14;94459.22;;;5.77;95.78
30110;BME280;14965;50.660;13.226;2023-02-23T03:13:56;94470.09;;;5.81;96.10
30110;BME280;14965;50.660;13.226;2023-02-23T03:16:36;94457.59;;;5.80;95.84
30110;BME280;14965;50.660;13.226;2023-02-23T03:19:14;94462.31;;;5.79;95.67
30110;BME280;14965;50.660;13.226;2023-02-23T03:21:50;94454.09;;;5.79;95.36
30110;BME280;14965;50.660;13.226;2023-02-23T03:24:32;94463.09;;;5.80;95.66
30110;BME280;14965;50.660;13.226;2023-02-23T03:27:13;94470.19;;;5.77;96.06
30110;BME280;14965;50.660;13.226;2023-02-23T03:29:50;94463.44;;;5.82;95.51
30110;BME280;14965;50.660;13.226;2023-02-23T03:32:24;94462.25;;;5.83;95.93
30110;BME280;14965;50.660;13.226;2023-02-23T03:35:00;94463.78;;;5.84;95.55
30110;BME280;14965;50.660;13.226;2023-02-23T03:37:36;94465.34;;;5.85;95.07
30110;BME280;14965;50.660;13.226;2023-02-23T03:40:11;94459.84;;;5.85;95.43
30110;BME280;14965;50.660;13.226;2023-02-23T03:42:42;94468.06;;;5.85;95.18
30110;BME280;14965;50.660;13.226;2023-02-23T03:45:16;94464.63;;;5.81;95.48
30110;BME280;14965;50.660;13.226;2023-02-23T03:47:44;94471.34;;;5.76;95.64
30110;BME280;14965;50.660;13.226;2023-02-23T03:50:19;94467.84;;;5.75;95.48
30110;BME280;14965;50.660;13.226;2023-02-23T03:52:53;94475.72;;;5.73;95.76
30110;BME280;14965;50.660;13.226;2023-02-23T03:55:28;94479.63;;;5.72;95.43
30110;BME280;14965;50.660;13.226;2023-02-23T03:57:59;94476.91;;;5.72;96.22
30110;BME280;14965;50.660;13.226;2023-02-23T04:00:32;94476.19;;;5.68;95.26
30110;BME280;14965;50.660;13.226;2023-02-23T04:03:00;94479.34;;;5.67;95.84
30110;BME280;14965;50.660;13.226;2023-02-23T04:05:29;94476.31;;;5.61;95.64
30110;BME280;14965;50.660;13.226;2023-02-23T04:07:59;94475.59;;;5.57;95.39
30110;BME280;14965;50.660;13.226;2023-02-23T04:10:32;94472.97;;;5.50;95.29
30110;BME280;14965;50.660;13.226;2023-02-23T04:13:06;94468.72;;;5.45;95.99
30110;BME280;14965;50.660;13.226;2023-02-23T04:15:37;94469.94;;;5.44;96.26
30110;BME280;14965;50.660;13.226;2023-02-23T04:18:05;94464.44;;;5.44;96.57
30110;BME280;14965;50.660;13.226;2023-02-23T04:20:32;94455.81;;;5.46;96.57
30110;BME280;14965;50.660;13.226;2023-02-23T04:22:58;94459.31;;;5.46;96.50
30110;BME280;14965;50.660;13.226;2023-02-23T04:25:24;94471.41;;;5.49;96.24
30110;BME280;14965;50.660;13.226;2023-02-23T04:27:51;94464.31;;;5.52;96.61
30110;BME280;14965;50.660;13.226;2023-02-23T04:30:18;94456.53;;;5.50;96.47
30110;BME280;14965;50.660;13.226;2023-02-23T04:32:44;94463.53;;;5.51;96.54
30110;BME280;14965;50.660;13.226;2023-02-23T04:35:11;94471.38;;;5.53;97.11
30110;BME280;14965;50.660;13.226;2023-02-23T04:37:38;94470.59;;;5.52;96.43
30110;BME280;14965;50.660;13.226;2023-02-23T04:40:05;94484.28;;;5.52;96.26
30110;BME280;14965;50.660;13.226;2023-02-23T04:42:31;94487.06;;;5.48;96.30
30110;BME280;14965;50.660;13.226;2023-02-23T04:44:58;94488.31;;;5.44;96.31
30110;BME280;14965;50.660;13.226;2023-02-23T04:47:24;94484.50;;;5.38;96.45
30110;BME280;14965;50.660;13.226;2023-02-23T04:49:51;94487.31;;;5.31;96.23
30110;BME280;14965;50.660;13.226;2023-02-23T04:52:17;94485.91;;;5.22;96.07
30110;BME280;14965;50.660;13.226;2023-02-23T04:54:43;94492.25;;;5.16;96.27
30110;BME280;14965;50.660;13.226;2023-02-23T04:57:09;94487.28;;;5.07;96.48
30110;BME280;14965;50.660;13.226;2023-02-23T04:59:35;94487.31;;;5.04;96.79
30110;BME280;14965;50.660;13.226;2023-02-23T05:02:03;94485.41;;;5.00;96.75
30110;BME280;14965;50.660;13.226;2023-02-23T05:04:29;94481.16;;;4.96;96.47
30110;BME280;14965;50.660;13.226;2023-02-23T05:06:55;94484.78;;;4.89;96.58
30110;BME280;14965;50.660;13.226;2023-02-23T05:09:21;94490.31;;;4.86;96.70
30110;BME280;14965;50.660;13.226;2023-02-23T05:11:46;94485.66;;;4.83;97.35
30110;BME280;14965;50.660;13.226;2023-02-23T05:14:12;94480.22;;;4.79;97.59
30110;BME280;14965;50.660;13.226;2023-02-23T05:16:38;94481.38;;;4.82;98.11
30110;BME280;14965;50.660;13.226;2023-02-23T05:19:06;94472.28;;;4.88;98.56
30110;BME280;14965;50.660;13.226;2023-02-23T05:21:31;94474.97;;;4.92;98.32
30110;BME280;14965;50.660;13.226;2023-02-23T05:23:57;94473.44;;;4.91;98.53
30110;BME280;14965;50.660;13.226;2023-02-23T05:26:23;94473.84;;;4.89;98.97
30110;BME280;14965;50.660;13.226;2023-02-23T05:28:49;94471.50;;;4.88;99.42
30110;BME280;14965;50.660;13.226;2023-02-23T05:31:15;94473.13;;;4.85;99.46
30110;BME280;14965;50.660;13.226;2023-02-23T05:33:41;94471.16;;;4.86;100.00
30110;BME280;14965;50.660;13.226;2023-02-23T05:36:09;94478.53;;;4.89;99.83
30110;BME280;14965;50.660;13.226;2023-02-23T05:38:36;94476.22;;;4.87;99.80
30110;BME280;14965;50.660;13.226;2023-02-23T05:41:04;94483.66;;;4.87;100.00
30110;BME280;14965;50.660;13.226;2023-02-23T05:43:30;94487.16;;;4.87;99.94
30110;BME280;14965;50.660;13.226;2023-02-23T05:45:56;94487.56;;;4.86;99.78
30110;BME280;14965;50.660;13.226;2023-02-23T05:48:22;94484.09;;;4.82;99.67
30110;BME280;14965;50.660;13.226;2023-02-23T05:50:48;94486.88;;;4.78;99.36
30110;BME280;14965;50.660;13.226;2023-02-23T05:53:15;94485.38;;;4.73;99.12
30110;BME280;14965;50.660;13.226;2023-02-23T05:55:41;94481.91;;;4.69;98.59
30110;BME280;14965;50.660;13.226;2023-02-23T05:58:06;94490.16;;;4.66;98.89
30110;BME280;14965;50.660;13.226;2023-02-23T06:00:32;94490.59;;;4.64;98.41
30110;BME280;14965;50.660;13.226;2023-02-23T06:02:58;94491.72;;;4.67;98.66
30110;BME280;14965;50.660;13.226;2023-02-23T06:05:24;94492.44;;;4.71;99.10
30110;BME280;14965;50.660;13.226;2023-02-23T06:07:50;94490.47;;;4.71;99.33
30110;BME280;14965;50.660;13.226;2023-02-23T06:10:17;94502.91;;;4.76;99.00
30110;BME280;14965;50.660;13.226;2023-02-23T06:12:43;94500.16;;;4.80;99.54
30110;BME280;14965;50.660;13.226;2023-02-23T06:15:10;94496.94;;;4.85;99.41
30110;BME280;14965;50.660;13.226;2023-02-23T06:17:36;94498.09;;;4.87;99.32
30110;BME280;14965;50.660;13.226;2023-02-23T06:20:02;94494.94;;;4.89;99.44
30110;BME280;14965;50.660;13.226;2023-02-23T06:22:28;94502.34;;;4.92;99.11
30110;BME280;14965;50.660;13.226;2023-02-23T06:24:54;94497.25;;;4.94;99.31
30110;BME280;14965;50.660;13.226;2023-02-23T06:27:21;94497.53;;;4.99;99.15
30110;BME280;14965;50.660;13.226;2023-02-23T06:29:47;94495.53;;;5.04;99.40
30110;BME280;14965;50.660;13.226;2023-02-23T06:32:13;94503.28;;;5.09;99.19
30110;BME280;14965;50.660;13.226;2023-02-23T06:34:39;94488.34;;;5.13;99.08
30110;BME280;14965;50.660;13.226;2023-02-23T06:37:04;94500.00;;;5.21;98.92
30110;BME280;14965;50.660;13.226;2023-02-23T06:39:30;94506.56;;;5.27;98.95
30110;BME280;14965;50.660;13.226;2023-02-23T06:41:56;94517.44;;;5.31;98.66
30110;BME280;14965;50.660;13.226;2023-02-23T06:44:24;94521.75;;;5.32;98.16
30110;BME280;14965;50.660;13.226;2023-02-23T06:46:50;94528.81;;;5.29;97.51
30110;BME280;14965;50.660;13.226;2023-02-23T06:49:15;94531.13;;;5.31;97.72
30110;BME280;14965;50.660;13.226;2023-02-23T06:51:41;94533.47;;;5.32;97.52
30110;BME280;14965;50.660;13.226;2023-02-23T06:54:07;94535.03;;;5.33;97.08
30110;BME280;14965;50.660;13.226;2023-02-23T06:56:33;94533.44;;;5.36;96.89
30110;BME280;14965;50.660;13.226;2023-02-23T06:58:59;94525.56;;;5.38;97.14
30110;BME280;14965;50.660;13.226;2023-02-23T07:01:26;94525.09;;;5.43;96.57
30110;BME280;14965;50.660;13.226;2023-02-23T07:03:52;94530.13;;;5.48;96.78
30110;BME280;14965;50.660;13.226;2023-02-23T07:06:17;94534.34;;;5.53;96.64
30110;BME280;14965;50.660;13.226;2023-02-23T07:08:43;94531.91;;;5.58;97.10
30110;BME280;14965;50.660;13.226;2023-02-23T07:11:13;94527.53;;;5.64;97.08
30110;BME280;14965;50.660;13.226;2023-02-23T07:13:40;94532.88;;;5.71;96.81
30110;BME280;14965;50.660;13.226;2023-02-23T07:16:07;94526.09;;;5.80;96.71
30110;BME280;14965;50.660;13.226;2023-02-23T07:18:34;94522.06;;;5.88;96.57
30110;BME280;14965;50.660;13.226;2023-02-23T07:21:00;94521.94;;;5.98;96.14
30110;BME280;14965;50.660;13.226;2023-02-23T07:23:25;94524.06;;;6.11;96.04
30110;BME280;14965;50.660;13.226;2023-02-23T07:25:52;94523.88;;;6.21;95.70
30110;BME280;14965;50.660;13.226;2023-02-23T07:28:18;94516.22;;;6.33;95.45
30110;BME280;14965;50.660;13.226;2023-02-23T07:30:44;94522.66;;;6.46;95.51
30110;BME280;14965;50.660;13.226;2023-02-23T07:33:10;94525.22;;;6.57;94.64
30110;BME280;14965;50.660;13.226;2023-02-23T07:35:37;94525.75;;;6.68;93.95
30110;BME280;14965;50.660;13.226;2023-02-23T07:38:03;94524.03;;;6.78;93.30
30110;BME280;14965;50.660;13.226;2023-02-23T07:40:29;94523.84;;;6.85;93.41
30110;BME280;14965;50.660;13.226;2023-02-23T07:42:55;94521.81;;;6.89;92.23
30110;BME280;14965;50.660;13.226;2023-02-23T07:45:20;94530.69;;;6.96;92.25
30110;BME280;14965;50.660;13.226;2023-02-23T07:47:46;94527.81;;;7.04;91.87
30110;BME280;14965;50.660;13.226;2023-02-23T07:50:12;94526.47;;;7.12;92.08
30110;BME280;14965;50.660;13.226;2023-02-23T07:52:41;94529.47;;;7.17;90.92
30110;BME280;14965;50.660;13.226;2023-02-23T07:55:09;94530.09;;;7.25;90.13
30110;BME280;14965;50.660;13.226;2023-02-23T07:57:36;94530.72;;;7.33;90.48
30110;BME280;14965;50.660;13.226;2023-02-23T08:00:04;94530.22;;;7.38;89.83
30110;BME280;14965;50.660;13.226;2023-02-23T08:02:30;94530.84;;;7.45;89.53
30110;BME280;14965;50.660;13.226;2023-02-23T08:04:55;94533.75;;;7.55;89.96
30110;BME280;14965;50.660;13.226;2023-02-23T08:07:22;94538.34;;;7.61;89.07
30110;BME280;14965;50.660;13.226;2023-02-23T08:09:50;94538.94;;;7.69;88.85
30110;BME280;14965;50.660;13.226;2023-02-23T08:12:16;94532.50;;;7.76;88.88
30110;BME280;14965;50.660;13.226;2023-02-23T08:14:42;94531.66;;;7.79;88.77
30110;BME280;14965;50.660;13.226;2023-02-23T08:17:09;94540.16;;;7.84;88.61
30110;BME280;14965;50.660;13.226;2023-02-23T08:19:35;94541.53;;;7.92;88.11
30110;BME280;14965;50.660;13.226;2023-02-23T08:22:01;94538.25;;;7.97;87.63
30110;BME280;14965;50.660;13.226;2023-02-23T08:24:27;94535.44;;;8.01;87.44
30110;BME280;14965;50.660;13.226;2023-02-23T08:26:54;94533.44;;;8.02;87.03
30110;BME280;14965;50.660;13.226;2023-02-23T08:29:20;94542.38;;;8.06;87.36
30110;BME280;14965;50.660;13.226;2023-02-23T08:31:46;94537.84;;;8.15;86.67
30110;BME280;14965;50.660;13.226;2023-02-23T08:34:12;94540.41;;;8.22;86.86
30110;BME280;14965;50.660;13.226;2023-02-23T08:36:38;94540.16;;;8.33;86.56
30110;BME280;14965;50.660;13.226;2023-02-23T08:39:04;94541.53;;;8.41;86.31
30110;BME280;14965;50.660;13.226;2023-02-23T08:41:30;94536.03;;;8.41;85.26
30110;BME280;14965;50.660;13.226;2023-02-23T08:43:58;94540.00;;;8.40;85.58
30110;BME280;14965;50.660;13.226;2023-02-23T08:46:24;94539.88;;;8.44;85.13
30110;BME280;14965;50.660;13.226;2023-02-23T08:48:50;94537.03;;;8.47;84.84
30110;BME280;14965;50.660;13.226;2023-02-23T08:51:16;94534.88;;;8.55;85.29
30110;BME280;14965;50.660;13.226;2023-02-23T08:53:42;94533.84;;;8.65;84.97
30110;BME280;14965;50.660;13.226;2023-02-23T08:56:09;94540.69;;;8.73;84.52
30110;BME280;14965;50.660;13.226;2023-02-23T08:58:36;94527.06;;;8.83;83.94
30110;BME280;14965;50.660;13.226;2023-02-23T09:01:04;94528.06;;;8.89;83.83
30110;BME280;14965;50.660;13.226;2023-02-23T09:03:32;94527.88;;;8.96;83.69
30110;BME280;14965;50.660;13.226;2023-02-23T09:06:07;94526.91;;;9.03;82.93
30110;BME280;14965;50.660;13.226;2023-02-23T09:08:33;94535.72;;;9.10;82.84
30110;BME280;14965;50.660;13.226;2023-02-23T09:10:58;94531.56;;;9.18;82.65
30110;BME280;14965;50.660;13.226;2023-02-23T09:13:24;94534.44;;;9.28;81.93
30110;BME280;14965;50.660;13.226;2023-02-23T09:15:50;94533.38;;;9.38;81.95
30110;BME280;14965;50.660;13.226;2023-02-23T09:18:17;94532.63;;;9.50;81.64
30110;BME280;14965;50.660;13.226;2023-02-23T09:20:44;94529.44;;;9.64;81.32
30110;BME280;14965;50.660;13.226;2023-02-23T09:23:11;94535.94;;;9.70;80.56
30110;BME280;14965;50.660;13.226;2023-02-23T09:25:41;94527.44;;;9.78;80.44
30110;BME280;14965;50.660;13.226;2023-02-23T09:28:09;94531.88;;;9.88;79.95
30110;BME280;14965;50.660;13.226;2023-02-23T09:30:35;94534.50;;;9.91;79.17
30110;BME280;14965;50.660;13.226;2023-02-23T09:33:01;94527.56;;;9.87;79.26
30110;BME280;14965;50.660;13.226;2023-02-23T09:35:29;94521.72;;;9.85;78.99
30110;BME280;14965;50.660;13.226;2023-02-23T09:37:55;94528.75;;;9.86;79.09
30110;BME280;14965;50.660;13.226;2023-02-23T09:40:25;94530.06;;;9.94;79.15
30110;BME280;14965;50.660;13.226;2023-02-23T09:43:00;94528.53;;;10.06;79.08
30110;BME280;14965;50.660;13.226;2023-02-23T09:45:37;94529.06;;;10.13;78.70
30110;BME280;14965;50.660;13.226;2023-02-23T09:48:13;94536.34;;;10.20;78.04
30110;BME280;14965;50.660;13.226;2023-02-23T09:50:46;94532.50;;;10.17;78.44
30110;BME280;14965;50.660;13.226;2023-02-23T09:53:26;94528.72;;;10.24;78.30
30110;BME280;14965;50.660;13.226;2023-02-23T09:55:57;94522.88;;;10.35;77.87
30110;BME280;14965;50.660;13.226;2023-02-23T09:58:26;94529.69;;;10.43;77.66
30110;BME280;14965;50.660;13.226;2023-02-23T10:01:21;94521.53;;;10.39;76.68
30110;BME280;14965;50.660;13.226;2023-02-23T10:04:00;94525.53;;;10.38;76.74
30110;BME280;14965;50.660;13.226;2023-02-23T10:06:31;94521.41;;;10.43;76.53
30110;BME280;14965;50.660;13.226;2023-02-23T10:09:11;94518.31;;;10.54;76.79
30110;BME280;14965;50.660;13.226;2023-02-23T10:11:51;94528.53;;;10.66;76.60
30110;BME280;14965;50.660;13.226;2023-02-23T10:14:47;94523.97;;;10.72;76.16
30110;BME280;14965;50.660;13.226;2023-02-23T10:17:30;94523.75;;;10.79;76.51
30110;BME280;14965;50.660;13.226;2023-02-23T10:20:12;94519.16;;;10.85;75.95
30110;BME280;14965;50.660;13.226;2023-02-23T10:22:46;94517.50;;;10.88;75.00
30110;BME280;14965;50.660;13.226;2023-02-23T10:25:17;94507.81;;;10.83;75.06
30110;BME280;14965;50.660;13.226;2023-02-23T10:27:48;94518.53;;;10.81;75.28
30110;BME280;14965;50.660;13.226;2023-02-23T10:30:20;94514.09;;;10.84;75.48
30110;BME280;14965;50.660;13.226;2023-02-23T10:32:53;94510.75;;;10.89;75.88
30110;BME280;14965;50.660;13.226;2023-02-23T10:35:22;94511.06;;;10.91;75.73
30110;BME280;14965;50.660;13.226;2023-02-23T10:37:51;94518.53;;;10.81;76.06
30110;BME280;14965;50.660;13.226;2023-02-23T10:40:22;94515.81;;;10.68;76.68
30110;BME280;14965;50.660;13.226;2023-02-23T10:42:48;94509.44;;;10.59;77.31
30110;BME280;14965;50.660;13.226;2023-02-23T10:45:18;94516.97;;;10.58;77.97
30110;BME280;14965;50.660;13.226;2023-02-23T10:47:45;94523.38;;;10.55;78.37
30110;BME280;14965;50.660;13.226;2023-02-23T10:50:13;94518.97;;;10.58;78.59
30110;BME280;14965;50.660;13.226;2023-02-23T10:52:44;94518.81;;;10.61;79.33
30110;BME280;14965;50.660;13.226;2023-02-23T10:55:28;94508.28;;;10.69;79.24
30110;BME280;14965;50.660;13.226;2023-02-23T10:58:08;94516.22;;;10.80;78.35
30110;BME280;14965;50.660;13.226;2023-02-23T11:00:38;94513.66;;;10.85;78.86
30110;BME280;14965;50.660;13.226;2023-02-23T11:03:17;94506.59;;;10.84;79.40
30110;BME280;14965;50.660;13.226;2023-02-23T11:05:49;94505.59;;;10.78;79.29
30110;BME280;14965;50.660;13.226;2023-02-23T11:08:26;94499.00;;;10.76;78.39
30110;BME280;14965;50.660;13.226;2023-02-23T11:11:08;94495.66;;;10.81;78.04
30110;BME280;14965;50.660;13.226;2023-02-23T11:13:45;94498.69;;;10.95;77.97
30110;BME280;14965;50.660;13.226;2023-02-23T11:16:14;94497.06;;;11.07;77.63
30110;BME280;14965;50.660;13.226;2023-02-23T11:18:49;94492.94;;;11.12;77.00
30110;BME280;14965;50.660;13.226;2023-02-23T11:21:23;94494.94;;;11.11;76.93
30110;BME280;14965;50.660;13.226;2023-02-23T11:23:52;94493.03;;;11.21;77.02
30110;BME280;14965;50.660;13.226;2023-02-23T11:26:30;94485.06;;;11.32;76.55
30110;BME280;14965;50.660;13.226;2023-02-23T11:28:59;94491.38;;;11.33;76.52
30110;BME280;14965;50.660;13.226;2023-02-23T11:31:32;94482.50;;;11.38;75.96
30110;BME280;14965;50.660;13.226;2023-02-23T11:34:01;94482.38;;;11.41;76.01
30110;BME280;14965;50.660;13.226;2023-02-23T11:36:31;94477.03;;;11.47;75.92
30110;BME280;14965;50.660;13.226;2023-02-23T11:39:18;94474.25;;;11.47;75.59
30110;BME280;14965;50.660;13.226;2023-02-23T11:42:11;94471.78;;;11.49;76.29
30110;BME280;14965;50.660;13.226;2023-02-23T11:44:38;94474.75;;;11.55;75.41
30110;BME280;14965;50.660;13.226;2023-02-23T11:47:04;94475.09;;;11.66;75.61
30110;BME280;14965;50.660;13.226;2023-02-23T11:49:32;94466.69;;;11.79;74.36
30110;BME280;14965;50.660;13.226;2023-02-23T11:51:58;94468.75;;;11.87;74.16
30110;BME280;14965;50.660;13.226;2023-02-23T11:54:28;94471.38;;;11.91;74.42
30110;BME280;14965;50.660;13.226;2023-02-23T11:56:57;94466.53;;;11.73;74.80
30110;BME280;14965;50.660;13.226;2023-02-23T11:59:29;94465.88;;;11.60;75.59
30110;BME280;14965;50.660;13.226;2023-02-23T12:02:05;94463.34;;;11.43;76.07
30110;BME280;14965;50.660;13.226;2023-02-23T12:04:44;94461.75;;;11.33;76.85
30110;BME280;14965;50.660;13.226;2023-02-23T12:07:29;94465.72;;;11.32;76.76
30110;BME280;14965;50.660;13.226;2023-02-23T12:10:06;94462.91;;;11.23;77.19
30110;BME280;14965;50.660;13.226;2023-02-23T12:12:48;94464.75;;;11.17;77.45
30110;BME280;14965;50.660;13.226;2023-02-23T12:15:25;94468.88;;;11.12;77.95
30110;BME280;14965;50.660;13.226;2023-02-23T12:17:58;94461.34;;;11.13;77.83
30110;BME280;14965;50.660;13.226;2023-02-23T12:20:30;94469.22;;;11.23;77.56
30110;BME280;14965;50.660;13.226;2023-02-23T12:23:06;94465.25;;;11.25;77.27
30110;BME280;14965;50.660;13.226;2023-02-23T12:25:40;94460.28;;;11.19;77.57
30110;BME280;14965;50.660;13.226;2023-02-23T12:28:18;94462.06;;;11.04;78.23
30110;BME280;14965;50.660;13.226;2023-02-23T12:30:52;94460.84;;;11.05;78.69
30110;BME280;14965;50.660;13.226;2023-02-23T12:33:26;94457.94;;;11.09;78.63
30110;BME280;14965;50.660;13.226;2023-02-23T12:36:00;94456.06;;;11.06;77.62
30110;BME280;14965;50.660;13.226;2023-02-23T12:38:38;94448.88;;;11.08;78.81
30110;BME280;14965;50.660;13.226;2023-02-23T12:41:12;94447.19;;;11.11;78.56
30110;BME280;14965;50.660;13.226;2023-02-23T12:43:47;94452.31;;;11.21;78.74
30110;BME280;14965;50.660;13.226;2023-02-23T12:46:20;94444.97;;;11.28;77.80
30110;BME280;14965;50.660;13.226;2023-02-23T12:49:02;94452.88;;;11.38;77.61
30110;BME280;14965;50.660;13.226;2023-02-23T12:51:36;94444.72;;;11.35;77.25
30110;BME280;14965;50.660;13.226;2023-02-23T12:54:08;94445.59;;;11.32;77.88
30110;BME280;14965;50.660;13.226;2023-02-23T12:56:52;94448.28;;;11.13;78.21
30110;BME280;14965;50.660;13.226;2023-02-23T13:02:49;94443.25;;;10.68;79.44
30110;BME280;14965;50.660;13.226;2023-02-23T13:05:25;94441.66;;;10.58;80.00
30110;BME280;14965;50.660;13.226;2023-02-23T13:08:10;94440.53;;;10.55;80.75
30110;BME280;14965;50.660;13.226;2023-02-23T13:10:49;94442.19;;;10.53;81.05
30110;BME280;14965;50.660;13.226;2023-02-23T13:13:32;94439.00;;;10.54;81.10
30110;BME280;14965;50.660;13.226;2023-02-23T13:16:10;94433.91;;;10.53;80.85
30110;BME280;14965;50.660;13.226;2023-02-23T13:18:44;94434.69;;;10.53;80.97
30110;BME280;14965;50.660;13.226;2023-02-23T13:21:22;94435.91;;;10.52;81.21